createdAt,value
2023-04-18T00:00:49.482Z,0.00
2023-04-18T00:01:49.587Z,0.00
2023-04-18T00:02:49.756Z,0.00
2023-04-18T00:04:48.860Z,0.00
2023-04-18T00:05:49.744Z,0.00
2023-04-18T00:06:49.794Z,0.00
2023-04-18T00:07:49.824Z,0.00
2023-04-18T00:08:49.867Z,0.00
2023-04-18T00:09:49.930Z,9.89
2023-04-18T00:10:49.998Z,25.00
2023-04-18T00:11:50.024Z,25.00
2023-04-18T00:12:50.062Z,25.00
2023-04-18T00:13:50.088Z,25.74
2023-04-18T00:14:50.130Z,25.59
2023-04-18T00:15:50.158Z,25.00
2023-04-18T00:16:50.208Z,26.16
2023-04-18T00:17:50.314Z,28.67
2023-04-18T00:18:50.274Z,25.02
2023-04-18T00:19:50.307Z,25.00
2023-04-18T00:20:50.318Z,27.05
2023-04-18T00:21:50.348Z,25.24
2023-04-18T00:22:50.394Z,25.00
2023-04-18T00:23:50.426Z,27.15
2023-04-18T00:24:50.438Z,25.67
2023-04-18T00:25:50.462Z,26.97
2023-04-18T00:26:50.510Z,28.17
2023-04-18T00:27:50.507Z,25.29
2023-04-18T00:28:50.556Z,25.68
2023-04-18T00:29:50.583Z,25.43
2023-04-18T00:30:50.687Z,26.72
2023-04-18T00:31:50.672Z,25.00
2023-04-18T00:32:50.834Z,26.54
2023-04-18T00:33:50.704Z,26.25
2023-04-18T00:34:50.734Z,25.76
2023-04-18T00:35:50.787Z,25.72
2023-04-18T00:36:50.791Z,26.47
2023-04-18T00:37:50.818Z,26.69
2023-04-18T00:38:50.872Z,28.27
2023-04-18T00:39:50.861Z,27.97
2023-04-18T00:40:50.883Z,25.26
2023-04-18T00:41:50.894Z,25.38
2023-04-18T00:42:50.923Z,28.99
2023-04-18T00:43:50.900Z,26.00
2023-04-18T00:44:50.922Z,26.86
2023-04-18T00:45:50.988Z,27.24
2023-04-18T00:46:50.935Z,25.00
2023-04-18T00:47:51.004Z,27.62
2023-04-18T00:48:50.975Z,28.05
2023-04-18T00:49:50.967Z,27.74
2023-04-18T00:50:50.985Z,28.07
2023-04-18T00:51:51.021Z,27.61
2023-04-18T00:52:51.031Z,26.02
2023-04-18T00:53:51.033Z,26.66
2023-04-18T00:54:51.053Z,26.04
2023-04-18T00:55:51.047Z,26.95
2023-04-18T00:56:51.069Z,29.39
2023-04-18T00:57:51.081Z,27.75
2023-04-18T00:58:51.106Z,26.20
2023-04-18T00:59:51.081Z,28.20
2023-04-18T01:00:51.099Z,26.34
2023-04-18T01:01:51.126Z,25.00
2023-04-18T01:02:51.180Z,27.83
2023-04-18T01:03:51.145Z,26.19
2023-04-18T01:04:51.071Z,25.00
2023-04-18T01:05:51.069Z,28.74
2023-04-18T01:06:51.069Z,26.44
2023-04-18T01:07:51.054Z,26.71
2023-04-18T01:08:51.052Z,27.79
2023-04-18T01:09:51.049Z,28.47
2023-04-18T01:10:51.043Z,28.88
2023-04-18T01:11:51.031Z,25.70
2023-04-18T01:12:51.036Z,25.86
2023-04-18T01:13:51.023Z,25.54
2023-04-18T01:14:51.040Z,27.14
2023-04-18T01:15:51.091Z,26.31
2023-04-18T01:16:51.043Z,27.07
2023-04-18T01:17:51.046Z,28.42
2023-04-18T01:18:51.021Z,26.44
2023-04-18T01:19:51.082Z,30.54
2023-04-18T01:20:51.025Z,29.20
2023-04-18T01:21:51.009Z,28.57
2023-04-18T01:22:51.005Z,26.82
2023-04-18T01:23:51.007Z,27.93
2023-04-18T01:24:51.010Z,26.70
2023-04-18T01:25:51.008Z,30.86
2023-04-18T01:26:50.998Z,27.34
2023-04-18T01:27:50.991Z,29.85
2023-04-18T01:28:50.997Z,30.39
2023-04-18T01:29:50.997Z,29.07
2023-04-18T01:30:51.031Z,28.90
2023-04-18T01:31:51.000Z,27.51
2023-04-18T01:32:51.046Z,27.95
2023-04-18T01:33:50.990Z,26.59
2023-04-18T01:34:51.003Z,27.48
2023-04-18T01:35:51.006Z,26.90
2023-04-18T01:36:51.002Z,29.19
2023-04-18T01:37:50.999Z,26.64
2023-04-18T01:38:50.990Z,28.58
2023-04-18T01:39:50.975Z,26.13
2023-04-18T01:40:50.990Z,27.03
2023-04-18T01:41:50.998Z,25.68
2023-04-18T01:42:50.998Z,26.78
2023-04-18T01:43:50.970Z,26.95
2023-04-18T01:44:50.986Z,27.99
2023-04-18T01:45:50.962Z,26.19
2023-04-18T01:46:51.024Z,26.83
2023-04-18T01:47:51.038Z,26.73
2023-04-18T01:48:50.957Z,25.02
2023-04-18T01:49:50.951Z,26.33
2023-04-18T01:50:50.955Z,26.53
2023-04-18T01:51:50.965Z,27.02
2023-04-18T01:52:50.958Z,27.41
2023-04-18T01:53:50.930Z,27.40
2023-04-18T01:54:50.928Z,26.67
2023-04-18T01:55:50.961Z,26.12
2023-04-18T01:56:50.931Z,26.19
2023-04-18T01:57:50.939Z,27.54
2023-04-18T01:58:50.924Z,27.24
2023-04-18T01:59:50.917Z,26.89
2023-04-18T02:00:50.925Z,28.14
2023-04-18T02:01:50.933Z,30.10
2023-04-18T02:02:51.084Z,28.51
2023-04-18T02:03:51.147Z,27.52
2023-04-18T02:04:50.893Z,27.92
2023-04-18T02:05:50.883Z,27.52
2023-04-18T02:06:50.891Z,25.00
2023-04-18T02:07:50.878Z,27.69
2023-04-18T02:08:50.873Z,28.52
2023-04-18T02:09:50.860Z,25.79
2023-04-18T02:10:50.856Z,25.31
2023-04-18T02:11:50.862Z,25.57
2023-04-18T02:12:50.860Z,29.37
2023-04-18T02:13:50.852Z,30.80
2023-04-18T02:14:50.845Z,27.52
2023-04-18T02:15:50.836Z,29.23
2023-04-18T02:16:50.980Z,27.99
2023-04-18T02:17:50.878Z,30.06
2023-04-18T02:18:50.926Z,30.57
2023-04-18T02:19:50.817Z,28.59
2023-04-18T02:20:50.805Z,28.27
2023-04-18T02:21:50.806Z,28.31
2023-04-18T02:22:50.795Z,27.00
2023-04-18T02:23:50.789Z,25.00
2023-04-18T02:24:50.791Z,27.23
2023-04-18T02:25:50.836Z,28.19
2023-04-18T02:26:50.784Z,27.70
2023-04-18T02:27:50.770Z,28.31
2023-04-18T02:28:50.760Z,29.15
2023-04-18T02:29:50.763Z,26.60
2023-04-18T02:30:50.747Z,26.31
2023-04-18T02:31:50.844Z,28.28
2023-04-18T02:32:50.825Z,29.42
2023-04-18T02:33:50.743Z,29.59
2023-04-18T02:34:50.769Z,26.54
2023-04-18T02:35:50.748Z,28.81
2023-04-18T02:36:50.742Z,26.27
2023-04-18T02:37:50.732Z,28.92
2023-04-18T02:38:50.730Z,28.72
2023-04-18T02:39:50.719Z,28.23
2023-04-18T02:40:50.704Z,29.89
2023-04-18T02:41:50.713Z,30.25
2023-04-18T02:42:50.701Z,30.62
2023-04-18T02:43:50.692Z,27.94
2023-04-18T02:44:50.692Z,29.44
2023-04-18T02:45:50.719Z,27.77
2023-04-18T02:46:50.679Z,28.84
2023-04-18T02:47:55.395Z,30.10
2023-04-18T02:48:50.653Z,30.37
2023-04-18T02:49:50.660Z,30.98
2023-04-18T02:50:50.686Z,31.27
2023-04-18T02:51:50.631Z,29.63
2023-04-18T02:52:50.609Z,27.64
2023-04-18T02:53:50.593Z,27.43
2023-04-18T02:54:50.586Z,25.00
2023-04-18T02:55:50.583Z,32.71
2023-04-18T02:56:50.580Z,27.74
2023-04-18T02:57:50.574Z,28.13
2023-04-18T02:58:50.570Z,29.80
2023-04-18T02:59:50.561Z,27.97
2023-04-18T03:00:50.555Z,30.25
2023-04-18T03:01:50.559Z,27.25
2023-04-18T03:02:50.676Z,28.27
2023-04-18T03:03:50.544Z,29.59
2023-04-18T03:04:50.563Z,29.68
2023-04-18T03:05:50.529Z,29.69
2023-04-18T03:06:50.561Z,27.11
2023-04-18T03:07:50.523Z,28.21
2023-04-18T03:08:50.512Z,27.10
2023-04-18T03:09:50.508Z,29.61
2023-04-18T03:10:50.503Z,27.74
2023-04-18T03:11:50.490Z,30.18
2023-04-18T03:12:50.478Z,29.64
2023-04-18T03:13:50.470Z,28.61
2023-04-18T03:14:50.444Z,28.67
2023-04-18T03:15:50.466Z,27.35
2023-04-18T03:16:51.772Z,28.06
2023-04-18T03:17:50.473Z,28.41
2023-04-18T03:18:50.396Z,28.68
2023-04-18T03:19:50.395Z,29.12
2023-04-18T03:20:50.370Z,29.08
2023-04-18T03:21:50.368Z,29.06
2023-04-18T03:22:50.370Z,32.09
2023-04-18T03:23:50.346Z,26.96
2023-04-18T03:24:50.340Z,28.77
2023-04-18T03:25:50.314Z,28.74
2023-04-18T03:26:50.316Z,28.45
2023-04-18T03:27:50.290Z,25.81
2023-04-18T03:28:50.284Z,27.21
2023-04-18T03:29:50.274Z,30.24
2023-04-18T03:30:50.424Z,27.34
2023-04-18T03:31:50.246Z,28.95
2023-04-18T03:32:50.288Z,29.78
2023-04-18T03:33:50.237Z,25.47
2023-04-18T03:34:50.225Z,25.00
2023-04-18T03:35:50.216Z,28.64
2023-04-18T03:36:50.208Z,29.21
2023-04-18T03:37:50.196Z,28.34
2023-04-18T03:38:50.216Z,30.69
2023-04-18T03:39:50.194Z,28.11
2023-04-18T03:40:50.179Z,25.88
2023-04-18T03:41:50.157Z,28.46
2023-04-18T03:42:50.140Z,29.29
2023-04-18T03:43:50.136Z,30.39
2023-04-18T03:44:50.148Z,26.92
2023-04-18T03:45:50.142Z,26.20
2023-04-18T03:46:50.104Z,28.73
2023-04-18T03:47:50.140Z,28.19
2023-04-18T03:48:50.077Z,27.47
2023-04-18T03:49:50.060Z,26.70
2023-04-18T03:50:50.060Z,27.91
2023-04-18T03:51:50.049Z,26.84
2023-04-18T03:52:50.043Z,27.80
2023-04-18T03:53:50.033Z,28.00
2023-04-18T03:54:50.056Z,27.54
2023-04-18T03:55:50.021Z,26.25
2023-04-18T03:56:50.014Z,27.47
2023-04-18T03:57:50.014Z,26.29
2023-04-18T03:58:50.010Z,26.96
2023-04-18T03:59:50.027Z,27.42
2023-04-18T04:00:50.000Z,25.25
2023-04-18T04:01:50.035Z,27.49
2023-04-18T04:02:50.186Z,28.58
2023-04-18T04:03:50.157Z,27.62
2023-04-18T04:04:50.031Z,26.97
2023-04-18T04:05:50.108Z,29.79
2023-04-18T04:06:49.938Z,28.02
2023-04-18T04:07:49.924Z,31.88
2023-04-18T04:08:49.925Z,28.80
2023-04-18T04:09:49.927Z,28.39
2023-04-18T04:10:49.980Z,30.90
2023-04-18T04:11:49.886Z,26.01
2023-04-18T04:12:49.916Z,26.29
2023-04-18T04:13:49.875Z,27.02
2023-04-18T04:14:49.869Z,26.42
2023-04-18T04:15:49.857Z,28.41
2023-04-18T04:16:50.043Z,28.76
2023-04-18T04:17:49.896Z,26.99
2023-04-18T04:18:49.841Z,27.69
2023-04-18T04:19:49.837Z,27.36
2023-04-18T04:20:49.867Z,27.66
2023-04-18T04:21:49.809Z,28.51
2023-04-18T04:22:49.802Z,31.05
2023-04-18T04:23:49.791Z,27.02
2023-04-18T04:24:49.782Z,28.24
2023-04-18T04:25:49.772Z,27.62
2023-04-18T04:26:49.795Z,27.36
2023-04-18T04:27:49.757Z,27.58
2023-04-18T04:28:49.748Z,27.28
2023-04-18T04:29:49.778Z,28.80
2023-04-18T04:30:49.725Z,27.94
2023-04-18T04:31:49.736Z,27.68
2023-04-18T04:32:49.806Z,25.23
2023-04-18T04:33:49.701Z,28.29
2023-04-18T04:34:49.689Z,27.93
2023-04-18T04:35:49.761Z,27.90
2023-04-18T04:36:49.666Z,30.62
2023-04-18T04:37:49.668Z,26.08
2023-04-18T04:38:49.660Z,28.24
2023-04-18T04:39:49.649Z,27.18
2023-04-18T04:40:49.646Z,28.22
2023-04-18T04:41:49.660Z,29.57
2023-04-18T04:42:49.719Z,29.34
2023-04-18T04:43:49.626Z,29.42
2023-04-18T04:44:49.768Z,28.68
2023-04-18T04:45:49.659Z,29.66
2023-04-18T04:46:49.618Z,26.87
2023-04-18T04:47:49.668Z,28.62
2023-04-18T04:48:49.614Z,28.48
2023-04-18T04:49:49.601Z,28.67
2023-04-18T04:50:49.595Z,29.41
2023-04-18T04:51:49.594Z,28.78
2023-04-18T04:52:49.620Z,28.65
2023-04-18T04:53:49.596Z,28.65
2023-04-18T04:54:49.595Z,25.89
2023-04-18T04:55:49.577Z,28.42
2023-04-18T04:56:49.586Z,29.46
2023-04-18T04:57:49.581Z,28.78
2023-04-18T04:58:49.607Z,28.99
2023-04-18T04:59:49.586Z,28.58
2023-04-18T05:00:49.671Z,28.28
2023-04-18T05:01:49.678Z,28.68
2023-04-18T05:02:49.941Z,27.38
2023-04-18T05:03:49.861Z,27.68
2023-04-18T05:04:49.676Z,29.93
2023-04-18T05:05:49.694Z,30.36
2023-04-18T05:06:49.701Z,28.73
2023-04-18T05:07:49.740Z,31.09
2023-04-18T05:08:49.747Z,27.92
2023-04-18T05:09:49.760Z,27.24
2023-04-18T05:10:49.783Z,28.89
2023-04-18T05:11:49.808Z,27.93
2023-04-18T05:12:49.824Z,29.93
2023-04-18T05:13:49.836Z,29.98
2023-04-18T05:14:49.888Z,27.45
2023-04-18T05:15:49.870Z,31.45
2023-04-18T05:16:49.902Z,28.92
2023-04-18T05:17:50.086Z,28.55
2023-04-18T05:18:49.911Z,27.38
2023-04-18T05:19:49.994Z,29.83
2023-04-18T05:20:49.908Z,27.31
2023-04-18T05:21:49.895Z,27.95
2023-04-18T05:22:49.899Z,28.18
2023-04-18T05:23:49.886Z,34.66
2023-04-18T05:24:49.988Z,39.60
2023-04-18T05:25:49.859Z,34.64
2023-04-18T05:26:49.877Z,34.63
2023-04-18T05:27:49.857Z,38.01
2023-04-18T05:28:49.854Z,35.28
2023-04-18T05:29:49.855Z,35.01
2023-04-18T05:30:50.036Z,37.20
2023-04-18T05:31:49.847Z,34.37
2023-04-18T05:32:49.876Z,36.90
2023-04-18T05:33:49.831Z,38.20
2023-04-18T05:34:49.812Z,37.92
2023-04-18T05:35:49.799Z,36.67
2023-04-18T05:36:49.801Z,36.04
2023-04-18T05:37:49.992Z,36.67
2023-04-18T05:38:49.825Z,38.85
2023-04-18T05:39:50.010Z,43.21
2023-04-18T05:40:49.799Z,40.27
2023-04-18T05:41:49.816Z,44.12
2023-04-18T05:42:49.805Z,46.49
2023-04-18T05:44:01.871Z,46.88
2023-04-18T05:44:49.803Z,47.42
2023-04-18T05:45:49.789Z,49.04
2023-04-18T05:46:49.811Z,50.87
2023-04-18T05:47:49.767Z,53.01
2023-04-18T05:48:50.001Z,59.48
2023-04-18T05:49:50.090Z,58.92
2023-04-18T05:50:49.738Z,63.40
2023-04-18T05:51:49.759Z,67.27
2023-04-18T05:52:49.691Z,69.10
2023-04-18T05:53:50.019Z,70.02
2023-04-18T05:54:49.699Z,69.39
2023-04-18T05:55:49.937Z,71.48
2023-04-18T05:56:49.730Z,74.30
2023-04-18T05:57:49.642Z,84.49
2023-04-18T05:58:50.003Z,91.13
2023-04-18T05:59:50.041Z,91.01
2023-04-18T06:00:49.624Z,70.33
2023-04-18T06:01:49.606Z,53.20
2023-04-18T06:02:49.861Z,50.00
2023-04-18T06:03:50.206Z,60.96
2023-04-18T06:04:49.960Z,76.12
2023-04-18T06:05:49.681Z,75.48
2023-04-18T06:06:49.571Z,74.52
2023-04-18T06:07:50.011Z,75.78
2023-04-18T06:08:49.593Z,76.42
2023-04-18T06:09:50.018Z,82.73
2023-04-18T06:10:49.576Z,87.33
2023-04-18T06:11:49.582Z,89.14
2023-04-18T06:12:49.960Z,93.50
2023-04-18T06:13:50.012Z,91.52
2023-04-18T06:14:50.725Z,87.66
2023-04-18T06:15:50.118Z,89.25
2023-04-18T06:16:49.996Z,88.27
2023-04-18T06:17:50.228Z,88.83
2023-04-18T06:18:49.987Z,88.71
2023-04-18T06:19:50.824Z,88.82
2023-04-18T06:20:50.079Z,86.48
2023-04-18T06:21:49.912Z,88.95
2023-04-18T06:22:50.134Z,87.88
2023-04-18T06:23:50.661Z,86.85
2023-04-18T06:24:50.011Z,88.42
2023-04-18T06:25:50.362Z,87.08
2023-04-18T06:26:49.708Z,90.17
2023-04-18T06:27:49.854Z,89.12
2023-04-18T06:28:50.104Z,86.29
2023-04-18T06:29:50.673Z,87.14
2023-04-18T06:30:49.917Z,87.08
2023-04-18T06:31:49.789Z,85.90
2023-04-18T06:32:49.957Z,86.21
2023-04-18T06:33:49.882Z,88.49
2023-04-18T06:34:50.073Z,87.72
2023-04-18T06:35:49.566Z,85.46
2023-04-18T06:36:49.581Z,86.33
2023-04-18T06:37:49.567Z,86.97
2023-04-18T06:38:50.014Z,86.74
2023-04-18T06:39:49.577Z,87.45
2023-04-18T06:40:49.596Z,84.55
2023-04-18T06:41:49.627Z,86.26
2023-04-18T06:42:49.631Z,89.01
2023-04-18T06:44:14.539Z,92.14
2023-04-18T06:44:49.626Z,92.48
2023-04-18T06:45:49.659Z,92.85
2023-04-18T06:46:49.630Z,93.64
2023-04-18T06:47:49.702Z,92.19
2023-04-18T06:48:51.433Z,91.96
2023-04-18T06:49:49.715Z,98.54
2023-04-18T06:50:49.662Z,94.72
2023-04-18T06:51:49.616Z,93.28
2023-04-18T06:52:50.034Z,90.13
2023-04-18T06:53:49.612Z,90.67
2023-04-18T06:54:50.023Z,90.51
2023-04-18T06:55:49.626Z,88.36
2023-04-18T06:56:49.645Z,87.45
2023-04-18T06:57:49.601Z,87.67
2023-04-18T06:58:50.024Z,88.36
2023-04-18T06:59:49.588Z,88.31
2023-04-18T07:00:50.067Z,88.06
2023-04-18T07:01:49.584Z,88.71
2023-04-18T07:02:49.735Z,87.74
2023-04-18T07:03:50.195Z,85.34
2023-04-18T07:04:49.577Z,84.35
2023-04-18T07:05:49.568Z,86.15
2023-04-18T07:06:49.591Z,86.91
2023-04-18T07:07:49.569Z,84.91
2023-04-18T07:08:50.020Z,83.87
2023-04-18T07:09:49.553Z,83.22
2023-04-18T07:10:49.569Z,83.84
2023-04-18T07:11:49.531Z,82.87
2023-04-18T07:12:49.528Z,81.57
2023-04-18T07:13:50.027Z,85.12
2023-04-18T07:14:49.627Z,82.77
2023-04-18T07:15:49.534Z,85.84
2023-04-18T07:16:49.559Z,83.94
2023-04-18T07:17:49.572Z,79.75
2023-04-18T07:18:49.588Z,83.16
2023-04-18T07:19:49.656Z,84.46
2023-04-18T07:20:49.689Z,80.09
2023-04-18T07:21:49.770Z,79.43
2023-04-18T07:22:50.028Z,82.87
2023-04-18T07:23:50.033Z,81.88
2023-04-18T07:24:49.869Z,82.70
2023-04-18T07:25:49.935Z,80.80
2023-04-18T07:26:49.991Z,79.03
2023-04-18T07:27:50.532Z,80.74
2023-04-18T07:28:50.530Z,79.48
2023-04-18T07:29:50.105Z,80.25
2023-04-18T07:30:50.247Z,81.25
2023-04-18T07:31:50.196Z,80.61
2023-04-18T07:32:50.403Z,78.32
2023-04-18T07:33:50.558Z,78.72
2023-04-18T07:34:50.362Z,79.13
2023-04-18T07:35:50.391Z,78.09
2023-04-18T07:36:50.467Z,76.35
2023-04-18T07:37:50.500Z,77.54
2023-04-18T07:38:51.077Z,78.34
2023-04-18T07:39:50.625Z,77.23
2023-04-18T07:40:50.718Z,83.01
2023-04-18T07:41:50.747Z,92.25
2023-04-18T07:42:50.838Z,101.19
2023-04-18T07:43:51.081Z,106.41
2023-04-18T07:44:50.940Z,110.83
2023-04-18T07:45:51.054Z,115.88
2023-04-18T07:46:51.080Z,120.74
2023-04-18T07:48:50.543Z,131.13
2023-04-18T07:49:51.255Z,135.22
2023-04-18T07:50:51.545Z,137.50
2023-04-18T07:51:51.374Z,144.17
2023-04-18T07:52:51.420Z,146.47
2023-04-18T07:53:51.461Z,151.42
2023-04-18T07:54:51.565Z,156.21
2023-04-18T07:55:52.049Z,161.11
2023-04-18T07:56:51.609Z,164.87
2023-04-18T07:57:51.742Z,169.28
2023-04-18T07:58:51.668Z,172.00
2023-04-18T07:59:51.713Z,177.74
2023-04-18T08:00:52.044Z,182.94
2023-04-18T08:01:51.767Z,187.92
2023-04-18T08:02:51.971Z,193.18
2023-04-18T08:03:51.966Z,198.32
2023-04-18T08:04:52.173Z,202.10
2023-04-18T08:05:52.061Z,203.36
2023-04-18T08:06:51.899Z,208.89
2023-04-18T08:07:51.920Z,212.70
2023-04-18T08:08:52.057Z,216.25
2023-04-18T08:09:51.978Z,216.29
2023-04-18T08:10:52.045Z,221.08
2023-04-18T08:11:52.007Z,224.60
2023-04-18T08:12:52.020Z,227.89
2023-04-18T08:13:52.044Z,234.09
2023-04-18T08:14:52.358Z,238.88
2023-04-18T08:15:52.602Z,243.02
2023-04-18T08:16:52.102Z,246.70
2023-04-18T08:17:52.125Z,248.08
2023-04-18T08:18:52.113Z,249.74
2023-04-18T08:19:52.552Z,250.00
2023-04-18T08:20:52.124Z,248.58
2023-04-18T08:21:52.141Z,250.00
2023-04-18T08:23:06.008Z,248.71
2023-04-18T08:23:52.142Z,249.25
2023-04-18T08:25:52.141Z,249.64
2023-04-18T08:26:52.770Z,252.48
2023-04-18T08:27:52.660Z,258.19
2023-04-18T08:28:52.111Z,265.44
2023-04-18T08:29:52.561Z,278.19
2023-04-18T08:30:52.131Z,257.10
2023-04-18T08:31:52.111Z,248.45
2023-04-18T08:32:52.222Z,249.83
2023-04-18T08:33:52.063Z,249.89
2023-04-18T08:34:52.057Z,248.34
2023-04-18T08:35:52.059Z,248.33
2023-04-18T08:36:52.030Z,250.00
2023-04-18T08:37:52.033Z,249.51
2023-04-18T08:38:52.014Z,249.54
2023-04-18T08:39:52.060Z,250.00
2023-04-18T08:40:51.998Z,250.00
2023-04-18T08:41:51.987Z,248.98
2023-04-18T08:42:52.167Z,249.34
2023-04-18T08:43:52.061Z,249.33
2023-04-18T08:44:52.071Z,249.71
2023-04-18T08:45:53.043Z,247.53
2023-04-18T08:46:51.957Z,248.23
2023-04-18T08:47:51.957Z,250.00
2023-04-18T08:48:51.909Z,249.18
2023-04-18T08:49:52.155Z,250.00
2023-04-18T08:50:51.889Z,248.99
2023-04-18T08:51:51.869Z,249.41
2023-04-18T08:52:51.891Z,250.00
2023-04-18T08:53:52.077Z,249.93
2023-04-18T08:54:51.843Z,249.62
2023-04-18T08:55:51.822Z,249.67
2023-04-18T08:56:51.833Z,249.11
2023-04-18T08:57:51.791Z,249.37
2023-04-18T08:58:52.118Z,250.00
2023-04-18T08:59:51.759Z,250.00
2023-04-18T09:00:51.811Z,248.76
2023-04-18T09:01:51.728Z,249.12
2023-04-18T09:02:52.157Z,250.00
2023-04-18T09:03:51.737Z,248.81
2023-04-18T09:04:51.704Z,249.55
2023-04-18T09:05:51.652Z,250.00
2023-04-18T09:06:51.646Z,250.00
2023-04-18T09:07:52.065Z,249.53
2023-04-18T09:08:51.762Z,248.98
2023-04-18T09:09:51.603Z,249.91
2023-04-18T09:10:51.619Z,249.15
2023-04-18T09:11:51.631Z,250.00
2023-04-18T09:12:52.245Z,249.75
2023-04-18T09:13:51.730Z,250.00
2023-04-18T09:14:51.783Z,249.26
2023-04-18T09:15:51.788Z,249.68
2023-04-18T09:16:51.876Z,249.95
2023-04-18T09:17:52.092Z,249.88
2023-04-18T09:18:51.843Z,249.86
2023-04-18T09:19:51.829Z,220.37
2023-04-18T09:20:51.836Z,159.46
2023-04-18T09:21:52.086Z,127.61
2023-04-18T09:22:51.955Z,120.70
2023-04-18T09:23:51.957Z,126.62
2023-04-18T09:24:51.978Z,133.88
2023-04-18T09:25:52.074Z,138.30
2023-04-18T09:26:52.077Z,134.93
2023-04-18T09:27:52.116Z,141.25
2023-04-18T09:28:53.861Z,143.22
2023-04-18T09:29:52.067Z,149.91
2023-04-18T09:30:52.103Z,163.48
2023-04-18T09:31:52.078Z,166.95
2023-04-18T09:32:52.106Z,171.23
2023-04-18T09:33:52.009Z,171.99
2023-04-18T09:34:51.997Z,168.25
2023-04-18T09:35:52.004Z,166.50
2023-04-18T09:36:52.130Z,165.16
2023-04-18T09:37:51.969Z,164.67
2023-04-18T09:38:53.701Z,165.36
2023-04-18T09:39:52.927Z,165.51
2023-04-18T09:40:52.083Z,165.46
2023-04-18T09:41:51.922Z,165.58
2023-04-18T09:42:51.900Z,164.89
2023-04-18T09:43:51.893Z,139.87
2023-04-18T09:44:51.883Z,114.67
2023-04-18T09:45:52.116Z,92.43
2023-04-18T09:46:52.075Z,58.40
2023-04-18T09:47:52.120Z,39.33
2023-04-18T09:48:51.836Z,30.01
2023-04-18T09:49:51.838Z,25.00
2023-04-18T09:50:51.846Z,26.33
2023-04-18T09:51:52.591Z,35.22
2023-04-18T09:52:51.796Z,36.50
